createdAt,value
2023-02-12T00:02:16.603Z,33.13
2023-02-12T00:04:45.991Z,28.13
2023-02-12T00:07:15.306Z,25.98
2023-02-12T00:09:44.730Z,28.95
2023-02-12T00:12:14.021Z,25.67
2023-02-12T00:14:43.338Z,28.75
2023-02-12T00:17:12.690Z,27.83
2023-02-12T00:19:42.113Z,33.92
2023-02-12T00:22:11.452Z,31.65
2023-02-12T00:24:40.794Z,27.42
2023-02-12T00:27:10.212Z,25.70
2023-02-12T00:29:40.113Z,30.15
2023-02-12T00:32:09.353Z,29.42
2023-02-12T00:34:38.610Z,28.42
2023-02-12T00:37:07.931Z,28.77
2023-02-12T00:39:38.121Z,28.90
2023-02-12T00:42:07.951Z,28.48
2023-02-12T00:44:37.588Z,27.38
2023-02-12T00:47:07.676Z,29.00
2023-02-12T00:49:36.989Z,27.50
2023-02-12T00:52:07.033Z,23.00
2023-02-12T00:54:36.286Z,27.52
2023-02-12T00:57:05.620Z,25.67
2023-02-12T00:59:36.589Z,26.23
2023-02-12T01:02:06.426Z,23.40
2023-02-12T01:04:35.781Z,27.45
2023-02-12T01:07:05.126Z,23.83
2023-02-12T01:09:34.450Z,24.73
2023-02-12T01:12:03.715Z,26.13
2023-02-12T01:14:32.971Z,24.23
2023-02-12T01:17:02.265Z,29.08
2023-02-12T01:19:31.512Z,26.15
2023-02-12T01:22:00.809Z,28.52
2023-02-12T01:24:30.074Z,23.33
2023-02-12T01:27:01.133Z,23.33
2023-02-12T01:29:31.078Z,23.95
2023-02-12T01:32:03.630Z,23.75
2023-02-12T01:34:33.053Z,26.15
2023-02-12T01:37:02.382Z,27.70
2023-02-12T01:39:31.753Z,25.65
2023-02-12T01:42:01.098Z,21.55
2023-02-12T01:44:35.116Z,24.52
2023-02-12T01:47:05.438Z,28.15
2023-02-12T01:49:35.086Z,26.80
2023-02-12T01:52:07.390Z,25.98
2023-02-12T01:54:37.971Z,26.58
2023-02-12T01:57:09.129Z,25.13
2023-02-12T01:59:39.418Z,27.23
2023-02-12T02:02:08.825Z,28.08
2023-02-12T02:04:46.683Z,25.40
2023-02-12T02:07:16.145Z,27.40
2023-02-12T02:09:46.044Z,23.65
2023-02-12T02:12:27.818Z,25.35
2023-02-12T02:15:01.693Z,26.13
2023-02-12T02:20:18.491Z,28.20
2023-02-12T02:22:57.151Z,26.00
2023-02-12T02:25:45.287Z,25.77
2023-02-12T02:28:33.294Z,27.55
2023-02-12T02:31:11.689Z,28.85
2023-02-12T02:33:45.360Z,29.95
2023-02-12T02:36:26.527Z,27.05
2023-02-12T02:39:03.706Z,28.00
2023-02-12T02:41:48.988Z,27.33
2023-02-12T02:44:24.768Z,28.27
2023-02-12T02:46:56.698Z,25.52
2023-02-12T02:49:27.930Z,25.75
2023-02-12T02:52:00.645Z,24.40
2023-02-12T02:54:36.412Z,25.42
2023-02-12T02:57:17.235Z,25.45
2023-02-12T02:59:49.739Z,20.67
2023-02-12T03:02:30.762Z,25.63
2023-02-12T03:05:05.968Z,23.35
2023-02-12T03:07:41.117Z,22.30
2023-02-12T03:10:14.660Z,32.97
2023-02-12T03:12:46.619Z,26.70
2023-02-12T03:15:21.590Z,25.13
2023-02-12T03:17:51.730Z,26.25
2023-02-12T03:20:23.468Z,23.73
2023-02-12T03:22:56.528Z,30.45
2023-02-12T03:25:31.991Z,26.08
2023-02-12T03:28:12.582Z,25.75
2023-02-12T03:31:05.917Z,23.50
2023-02-12T03:33:44.566Z,23.45
2023-02-12T03:36:22.815Z,22.40
2023-02-12T03:38:55.424Z,26.80
2023-02-12T03:41:30.678Z,26.10
2023-02-12T03:44:08.769Z,25.85
2023-02-12T03:46:47.936Z,26.50
2023-02-12T03:49:27.128Z,29.17
2023-02-12T03:51:56.658Z,21.67
2023-02-12T03:54:26.024Z,22.90
2023-02-12T03:57:02.521Z,20.88
2023-02-12T03:59:31.857Z,24.92
2023-02-12T04:02:01.763Z,26.23
2023-02-12T04:04:31.631Z,28.90
2023-02-12T04:07:01.227Z,24.08
2023-02-12T04:09:31.461Z,23.23
2023-02-12T04:12:03.849Z,25.98
2023-02-12T04:17:05.395Z,27.42
2023-02-12T04:19:44.073Z,30.67
2023-02-12T04:22:28.377Z,29.80
2023-02-12T04:24:57.673Z,23.10
2023-02-12T04:27:45.407Z,26.48
2023-02-12T04:30:23.642Z,25.13
2023-02-12T04:32:56.171Z,25.85
2023-02-12T04:38:15.077Z,23.85
2023-02-12T04:40:44.907Z,24.83
2023-02-12T04:43:14.228Z,23.13
2023-02-12T04:45:43.641Z,21.80
2023-02-12T04:48:13.565Z,26.00
2023-02-12T04:50:44.264Z,25.13
2023-02-12T04:53:13.632Z,28.55
2023-02-12T04:55:43.011Z,25.77
2023-02-12T04:58:12.372Z,22.08
2023-02-12T05:00:41.735Z,22.70
2023-02-12T05:03:11.022Z,27.52
2023-02-12T05:05:40.351Z,25.48
2023-02-12T05:08:09.700Z,27.92
2023-02-12T05:10:39.036Z,25.90
2023-02-12T05:13:08.357Z,21.13
2023-02-12T05:15:37.631Z,23.33
2023-02-12T05:18:06.927Z,26.77
2023-02-12T05:20:36.204Z,24.27
2023-02-12T05:23:05.438Z,24.00
2023-02-12T05:25:34.920Z,24.15
2023-02-12T05:28:04.276Z,22.35
2023-02-12T05:30:33.603Z,26.45
2023-02-12T05:33:02.930Z,23.30
2023-02-12T05:35:32.187Z,23.60
2023-02-12T05:38:01.693Z,22.35
2023-02-12T05:40:30.958Z,25.17
2023-02-12T05:43:00.252Z,27.15
2023-02-12T05:45:29.517Z,26.02
2023-02-12T05:47:59.375Z,27.85
2023-02-12T05:50:29.033Z,24.88
2023-02-12T05:53:03.108Z,22.83
2023-02-12T05:55:32.399Z,28.23
2023-02-12T05:58:01.691Z,22.98
2023-02-12T06:00:31.119Z,25.67
2023-02-12T06:03:00.482Z,24.83
2023-02-12T06:05:29.790Z,24.55
2023-02-12T06:07:59.059Z,20.67
2023-02-12T06:10:28.328Z,21.08
2023-02-12T06:12:58.313Z,23.42
2023-02-12T06:15:27.652Z,23.55
2023-02-12T06:17:56.922Z,24.35
2023-02-12T06:20:26.262Z,25.30
2023-02-12T06:22:55.575Z,23.40
2023-02-12T06:25:24.875Z,23.30
2023-02-12T06:27:54.385Z,27.05
2023-02-12T06:30:23.691Z,29.45
2023-02-12T06:32:53.157Z,26.08
2023-02-12T06:35:22.569Z,25.65
2023-02-12T06:37:52.011Z,24.23
2023-02-12T06:40:21.566Z,25.85
2023-02-12T06:42:50.882Z,31.52
2023-02-12T06:45:20.407Z,25.25
2023-02-12T06:47:49.810Z,25.05
2023-02-12T06:50:19.394Z,24.85
2023-02-12T06:52:48.754Z,25.75
2023-02-12T06:55:18.171Z,26.20
2023-02-12T06:57:47.608Z,31.52
2023-02-12T07:00:17.126Z,25.83
2023-02-12T07:02:46.603Z,32.92
2023-02-12T07:05:15.821Z,26.13
2023-02-12T07:07:45.138Z,30.08
2023-02-12T07:10:14.543Z,29.00
2023-02-12T07:12:43.984Z,26.95
2023-02-12T07:15:13.321Z,25.50
2023-02-12T07:17:42.702Z,28.00
2023-02-12T07:20:12.266Z,23.33
2023-02-12T07:22:41.570Z,26.20
2023-02-12T07:25:10.969Z,29.38
2023-02-12T07:27:40.537Z,29.60
2023-02-12T07:30:10.496Z,25.58
2023-02-12T07:32:39.778Z,26.92
2023-02-12T07:35:09.262Z,29.75
2023-02-12T07:37:38.565Z,28.25
2023-02-12T07:40:08.175Z,26.52
2023-02-12T07:42:37.477Z,26.08
2023-02-12T07:45:09.126Z,27.88
2023-02-12T07:47:38.644Z,28.58
2023-02-12T07:50:09.140Z,30.15
2023-02-12T07:52:38.390Z,28.05
2023-02-12T07:55:07.813Z,26.75
2023-02-12T07:57:39.860Z,29.88
2023-02-12T08:00:09.465Z,28.55
2023-02-12T08:02:44.344Z,29.92
2023-02-12T08:05:13.645Z,30.13
2023-02-12T08:07:42.933Z,29.70
2023-02-12T08:10:12.307Z,27.92
2023-02-12T08:12:41.581Z,28.10
2023-02-12T08:15:11.047Z,25.65
2023-02-12T08:17:40.363Z,29.08
2023-02-12T08:20:09.850Z,28.75
2023-02-12T08:22:39.156Z,29.20
2023-02-12T08:25:08.661Z,30.58
2023-02-12T08:27:37.961Z,28.10
2023-02-12T08:30:07.367Z,29.67
2023-02-12T08:32:36.649Z,29.33
2023-02-12T08:35:06.559Z,28.05
2023-02-12T08:37:35.884Z,30.70
2023-02-12T08:40:05.347Z,26.90
2023-02-12T08:42:34.633Z,27.52
2023-02-12T08:45:03.926Z,27.33
2023-02-12T08:47:33.398Z,29.50
2023-02-12T08:50:02.735Z,29.23
2023-02-12T08:52:31.994Z,28.73
2023-02-12T08:55:01.321Z,27.88
2023-02-12T08:57:30.620Z,26.58
2023-02-12T08:59:59.941Z,30.52
2023-02-12T09:02:29.340Z,26.30
2023-02-12T09:04:58.700Z,31.45
2023-02-12T09:07:27.960Z,32.10
2023-02-12T09:09:57.279Z,32.25
2023-02-12T09:12:26.557Z,29.90
2023-02-12T09:14:55.882Z,29.80
2023-02-12T09:17:28.628Z,34.88
2023-02-12T09:19:57.948Z,28.45
2023-02-12T09:22:27.324Z,32.70
2023-02-12T09:24:56.591Z,28.58
2023-02-12T09:27:25.841Z,34.83
2023-02-12T09:29:55.357Z,32.90
2023-02-12T09:32:24.603Z,32.25
2023-02-12T09:34:53.877Z,30.17
2023-02-12T09:37:23.198Z,30.98
2023-02-12T09:39:52.556Z,33.30
2023-02-12T09:42:52.142Z,32.67
2023-02-12T09:45:23.969Z,35.08
2023-02-12T09:48:06.943Z,29.80
2023-02-12T09:50:42.411Z,31.63
2023-02-12T09:53:15.283Z,35.03
2023-02-12T09:55:45.780Z,28.63
2023-02-12T09:58:21.998Z,33.72
2023-02-12T10:00:51.337Z,28.15
2023-02-12T10:03:21.108Z,30.50
2023-02-12T10:05:55.913Z,32.45
2023-02-12T10:08:33.032Z,28.60
2023-02-12T10:11:02.244Z,32.88
2023-02-12T10:13:51.973Z,26.63
2023-02-12T10:16:21.368Z,34.25
2023-02-12T10:18:50.785Z,28.48
2023-02-12T10:21:23.168Z,26.50
2023-02-12T10:26:25.876Z,27.50
2023-02-12T10:28:55.779Z,29.25
2023-02-12T10:31:33.638Z,30.65
2023-02-12T10:34:03.057Z,28.38
2023-02-12T10:36:32.310Z,26.77
2023-02-12T10:39:04.114Z,24.83
2023-02-12T10:41:34.131Z,30.60
2023-02-12T10:44:03.382Z,24.30
2023-02-12T10:46:33.569Z,29.27
2023-02-12T10:49:03.386Z,27.83
2023-02-12T10:51:39.443Z,26.00
2023-02-12T10:54:27.317Z,26.60
2023-02-12T10:56:56.928Z,25.35
2023-02-12T10:59:26.624Z,26.23
2023-02-12T11:01:55.976Z,24.90
2023-02-12T11:04:28.655Z,27.63
2023-02-12T11:07:04.196Z,27.58
2023-02-12T11:09:37.104Z,28.83
2023-02-12T11:12:06.480Z,25.67
2023-02-12T11:14:36.088Z,26.50
2023-02-12T11:17:05.442Z,26.25
2023-02-12T11:19:36.010Z,32.45
2023-02-12T11:22:14.645Z,26.10
2023-02-12T11:24:43.980Z,27.88
2023-02-12T11:27:16.182Z,26.42
2023-02-12T11:29:48.942Z,25.55
2023-02-12T11:32:19.957Z,27.38
2023-02-12T11:35:08.171Z,23.95
2023-02-12T11:37:42.506Z,25.25
2023-02-12T11:40:27.156Z,26.98
2023-02-12T11:43:01.340Z,26.52
2023-02-12T11:45:36.361Z,25.45
2023-02-12T11:48:05.976Z,26.65
2023-02-12T11:50:35.992Z,29.58
2023-02-12T11:53:09.481Z,28.45
2023-02-12T11:55:40.592Z,31.13
2023-02-12T11:58:15.826Z,25.38
2023-02-12T12:00:48.860Z,28.67
2023-02-12T12:03:22.032Z,25.40
2023-02-12T12:05:54.021Z,24.60
2023-02-12T12:08:27.039Z,25.85
2023-02-12T12:11:05.605Z,24.70
2023-02-12T12:13:37.238Z,26.58
2023-02-12T12:16:25.167Z,26.20
2023-02-12T12:19:29.006Z,23.77
2023-02-12T12:22:21.740Z,23.50
2023-02-12T12:24:56.073Z,24.98
2023-02-12T12:27:46.480Z,29.75
2023-02-12T12:30:22.990Z,28.33
2023-02-12T12:32:55.041Z,26.35
2023-02-12T12:35:28.626Z,26.20
2023-02-12T12:38:03.459Z,26.73
2023-02-12T12:40:42.201Z,26.65
2023-02-12T12:43:13.987Z,26.67
2023-02-12T12:45:55.757Z,23.50
2023-02-12T12:48:47.924Z,21.27
2023-02-12T12:51:32.280Z,25.58
2023-02-12T12:54:04.398Z,24.88
2023-02-12T12:56:36.689Z,27.70
2023-02-12T12:59:20.659Z,25.02
2023-02-12T13:01:49.908Z,23.52
2023-02-12T13:04:28.078Z,27.38
2023-02-12T13:07:16.604Z,27.48
2023-02-12T13:09:52.968Z,28.10
2023-02-12T13:12:28.506Z,24.55
2023-02-12T13:15:03.028Z,23.42
2023-02-12T13:17:37.240Z,26.05
2023-02-12T13:20:25.270Z,22.92
2023-02-12T13:22:57.581Z,22.55
2023-02-12T13:25:35.411Z,27.67
2023-02-12T13:28:05.873Z,28.35
2023-02-12T13:30:35.174Z,23.98
2023-02-12T13:33:34.156Z,27.58
2023-02-12T13:36:04.857Z,27.40
2023-02-12T13:38:37.253Z,25.20
2023-02-12T13:43:54.642Z,29.60
2023-02-12T13:46:25.321Z,21.20
2023-02-12T13:48:54.666Z,22.23
2023-02-12T13:51:44.541Z,25.63
2023-02-12T13:54:28.651Z,24.75
2023-02-12T13:56:59.711Z,25.98
2023-02-12T13:59:35.580Z,30.73
2023-02-12T14:02:06.544Z,28.60
2023-02-12T14:04:37.783Z,28.65
2023-02-12T14:07:10.059Z,26.63
2023-02-12T14:09:40.972Z,23.60
2023-02-12T14:12:30.191Z,24.35
2023-02-12T14:15:08.651Z,28.48
2023-02-12T14:17:38.032Z,28.63
2023-02-12T14:20:11.126Z,26.35
2023-02-12T14:22:46.709Z,25.95
2023-02-12T14:25:19.128Z,29.88
2023-02-12T14:30:17.524Z,27.50
2023-02-12T14:32:53.468Z,26.73
2023-02-12T14:35:29.065Z,31.67
2023-02-12T14:37:58.333Z,23.05
2023-02-12T14:40:40.734Z,26.80
2023-02-12T14:43:29.209Z,24.80
2023-02-12T14:45:59.857Z,30.52
2023-02-12T14:48:41.564Z,26.40
2023-02-12T14:51:17.278Z,28.05
2023-02-12T14:53:48.273Z,31.08
2023-02-12T14:56:22.380Z,26.58
2023-02-12T14:58:52.633Z,26.58
2023-02-12T15:01:29.700Z,30.13
2023-02-12T15:04:00.551Z,28.33
2023-02-12T15:06:42.785Z,24.70
2023-02-12T15:09:14.596Z,26.20
2023-02-12T15:11:47.436Z,32.40
2023-02-12T15:14:24.618Z,25.30
2023-02-12T15:17:13.077Z,28.13
2023-02-12T15:19:42.444Z,25.17
2023-02-12T15:22:26.093Z,31.55
2023-02-12T15:24:55.481Z,27.77
2023-02-12T15:27:24.761Z,27.77
2023-02-12T15:29:55.618Z,25.70
2023-02-12T15:32:27.410Z,25.13
2023-02-12T15:34:57.741Z,28.00
2023-02-12T15:37:31.921Z,28.10
2023-02-12T15:40:07.103Z,27.67
2023-02-12T15:42:42.799Z,30.95
2023-02-12T15:45:18.481Z,26.95
2023-02-12T15:47:48.560Z,29.80
2023-02-12T15:50:19.092Z,29.80
2023-02-12T15:52:49.280Z,26.48
2023-02-12T15:55:20.314Z,28.70
2023-02-12T15:57:53.378Z,29.73
2023-02-12T16:00:30.174Z,26.67
2023-02-12T16:02:59.631Z,25.95
2023-02-12T16:05:29.269Z,25.73
2023-02-12T16:08:00.009Z,26.33
2023-02-12T16:10:29.638Z,26.67
2023-02-12T16:12:59.019Z,29.33
2023-02-12T16:15:30.861Z,27.33
2023-02-12T16:18:04.223Z,30.35
2023-02-12T16:20:34.979Z,26.60
2023-02-12T16:23:07.986Z,25.38
2023-02-12T16:25:39.038Z,31.25
2023-02-12T16:28:18.432Z,28.17
2023-02-12T16:30:48.557Z,26.55
2023-02-12T16:33:38.286Z,30.00
2023-02-12T16:36:09.751Z,26.98
2023-02-12T16:38:44.230Z,24.80
2023-02-12T16:41:23.660Z,27.05
2023-02-12T16:44:05.171Z,29.23
2023-02-12T16:46:35.913Z,25.13
2023-02-12T16:49:06.442Z,27.52
2023-02-12T16:51:37.742Z,29.13
2023-02-12T16:54:07.885Z,29.23
2023-02-12T16:56:39.404Z,36.55
2023-02-12T16:59:08.791Z,32.73
2023-02-12T17:01:38.998Z,26.83
2023-02-12T17:04:10.019Z,27.35
2023-02-12T17:06:39.279Z,31.38
2023-02-12T17:09:08.624Z,31.88
2023-02-12T17:11:37.922Z,27.95
2023-02-12T17:14:07.178Z,28.88
2023-02-12T17:16:36.699Z,29.15
2023-02-12T17:19:05.993Z,27.05
2023-02-12T17:21:38.434Z,28.52
2023-02-12T17:26:36.976Z,31.70
2023-02-12T17:29:07.858Z,30.25
2023-02-12T17:31:37.783Z,29.88
2023-02-12T17:34:07.933Z,30.50
2023-02-12T17:36:37.431Z,30.63
2023-02-12T17:39:07.930Z,26.77
2023-02-12T17:41:37.738Z,28.05
2023-02-12T17:44:07.407Z,30.60
2023-02-12T17:46:36.926Z,27.80
2023-02-12T17:49:07.121Z,35.90
2023-02-12T17:51:36.807Z,29.20
2023-02-12T17:54:06.834Z,28.50
2023-02-12T17:56:36.424Z,26.73
2023-02-12T17:59:05.901Z,25.40
2023-02-12T18:01:36.043Z,29.55
2023-02-12T18:04:05.626Z,31.92
2023-02-12T18:06:35.161Z,27.98
2023-02-12T18:09:04.894Z,30.25
2023-02-12T18:11:35.324Z,31.38
2023-02-12T18:14:05.142Z,29.95
2023-02-12T18:16:36.571Z,29.95
2023-02-12T18:19:06.525Z,28.83
2023-02-12T18:21:36.966Z,28.75
2023-02-12T18:24:06.960Z,29.70
2023-02-12T18:26:36.851Z,29.08
2023-02-12T18:29:06.554Z,28.27
2023-02-12T18:31:36.483Z,34.58
2023-02-12T18:34:07.291Z,31.90
2023-02-12T18:36:36.711Z,30.45
2023-02-12T18:39:06.384Z,30.40
2023-02-12T18:41:36.139Z,29.95
2023-02-12T18:44:05.813Z,34.33
2023-02-12T18:46:35.864Z,34.20
2023-02-12T18:49:06.724Z,33.75
2023-02-12T18:51:38.671Z,36.70
2023-02-12T18:54:09.521Z,33.55
2023-02-12T18:56:41.043Z,36.70
2023-02-12T18:59:10.621Z,28.47
2023-02-12T19:01:40.140Z,32.22
2023-02-12T19:04:10.792Z,33.67
2023-02-12T19:06:44.687Z,34.63
2023-02-12T19:09:16.843Z,31.30
2023-02-12T19:11:47.230Z,31.45
2023-02-12T19:14:17.615Z,34.45
2023-02-12T19:16:47.798Z,32.63
2023-02-12T19:19:17.800Z,35.88
2023-02-12T19:21:47.147Z,38.45
2023-02-12T19:24:17.415Z,35.42
2023-02-12T19:26:47.123Z,35.15
2023-02-12T19:29:16.816Z,36.90
2023-02-12T19:31:47.322Z,36.63
2023-02-12T19:34:21.085Z,33.80
2023-02-12T19:36:51.656Z,29.58
2023-02-12T19:39:22.788Z,36.75
2023-02-12T19:41:52.157Z,33.58
2023-02-12T19:44:22.802Z,31.42
2023-02-12T19:46:52.454Z,40.58
2023-02-12T19:49:23.779Z,34.40
2023-02-12T19:51:53.457Z,38.08
2023-02-12T19:54:23.509Z,32.17
2023-02-12T19:56:53.780Z,36.65
2023-02-12T19:59:23.912Z,32.05
2023-02-12T20:01:53.282Z,31.55
2023-02-12T20:04:23.746Z,32.97
2023-02-12T20:06:53.583Z,32.17
2023-02-12T20:09:23.609Z,31.65
2023-02-12T20:11:53.243Z,36.38
2023-02-12T20:14:23.139Z,34.13
2023-02-12T20:16:53.140Z,35.65
2023-02-12T20:19:24.350Z,35.20
2023-02-12T20:21:56.728Z,38.05
2023-02-12T20:24:30.683Z,27.73
2023-02-12T20:27:00.581Z,30.63
2023-02-12T20:29:30.548Z,35.10
2023-02-12T20:31:59.975Z,38.72
2023-02-12T20:34:30.429Z,33.17
2023-02-12T20:37:00.844Z,32.00
2023-02-12T20:39:30.072Z,35.15
2023-02-12T20:41:59.339Z,29.65
2023-02-12T20:44:28.582Z,35.75
2023-02-12T20:46:58.547Z,33.80
2023-02-12T20:49:27.961Z,35.47
2023-02-12T20:51:57.307Z,35.85
2023-02-12T20:54:26.653Z,35.58
2023-02-12T20:56:55.922Z,35.65
2023-02-12T20:59:25.194Z,31.75
2023-02-12T21:01:54.635Z,35.55
2023-02-12T21:04:23.953Z,34.78
2023-02-12T21:06:53.193Z,37.97
2023-02-12T21:09:22.528Z,33.00
2023-02-12T21:11:52.128Z,32.03
2023-02-12T21:14:23.611Z,33.42
2023-02-12T21:16:54.474Z,37.45
2023-02-12T21:19:24.019Z,35.00
2023-02-12T21:21:53.306Z,37.45
2023-02-12T21:24:24.631Z,36.75
2023-02-12T21:26:54.790Z,34.28
2023-02-12T21:29:26.555Z,33.63
2023-02-12T21:31:56.097Z,28.42
2023-02-12T21:34:25.924Z,35.90
2023-02-12T21:36:56.496Z,35.67
2023-02-12T21:39:27.858Z,35.30
2023-02-12T21:42:00.141Z,39.75
2023-02-12T21:44:30.012Z,35.95
2023-02-12T21:46:59.435Z,36.53
2023-02-12T21:49:28.950Z,34.60
2023-02-12T21:52:02.739Z,34.33
2023-02-12T21:54:32.778Z,35.33
2023-02-12T21:57:02.251Z,30.40
2023-02-12T21:59:32.529Z,35.60
2023-02-12T22:02:02.280Z,27.42
2023-02-12T22:04:31.969Z,34.25
2023-02-12T22:07:03.505Z,34.63
2023-02-12T22:09:33.689Z,34.30
2023-02-12T22:12:02.988Z,35.45
2023-02-12T22:14:32.411Z,37.92
2023-02-12T22:17:01.735Z,35.03
2023-02-12T22:19:31.069Z,34.83
2023-02-12T22:22:00.416Z,33.17
2023-02-12T22:24:29.680Z,34.47
2023-02-12T22:26:58.960Z,35.00
2023-02-12T22:29:28.215Z,32.15
2023-02-12T22:31:57.733Z,31.20
2023-02-12T22:34:27.090Z,30.48
2023-02-12T22:36:56.339Z,38.28
2023-02-12T22:39:25.625Z,33.10
2023-02-12T22:41:57.629Z,37.85
2023-02-12T22:44:26.869Z,32.38
2023-02-12T22:46:56.146Z,36.78
2023-02-12T22:49:27.914Z,36.40
2023-02-12T22:51:57.222Z,35.30
2023-02-12T22:54:26.500Z,31.60
2023-02-12T22:56:55.791Z,38.53
2023-02-12T22:59:25.034Z,36.15
2023-02-12T23:01:54.370Z,34.70
2023-02-12T23:04:23.951Z,35.67
2023-02-12T23:06:53.325Z,33.67
2023-02-12T23:09:22.691Z,33.28
2023-02-12T23:11:51.948Z,34.05
2023-02-12T23:14:21.212Z,45.55
2023-02-12T23:16:53.269Z,38.95
2023-02-12T23:19:23.953Z,36.42
2023-02-12T23:21:53.190Z,40.28
2023-02-12T23:24:22.535Z,41.00
2023-02-12T23:26:51.883Z,37.55
2023-02-12T23:29:21.263Z,40.83
2023-02-12T23:31:53.496Z,41.70
2023-02-12T23:34:22.881Z,37.70
2023-02-12T23:36:52.235Z,47.03
2023-02-12T23:39:21.511Z,34.63
2023-02-12T23:41:50.788Z,38.42
2023-02-12T23:44:20.089Z,35.05
2023-02-12T23:46:52.005Z,37.13
2023-02-12T23:49:21.360Z,31.98
2023-02-12T23:51:50.676Z,37.17
2023-02-12T23:54:19.993Z,37.78
2023-02-12T23:56:49.394Z,38.30
2023-02-12T23:59:18.667Z,36.33
